Bledso, Texas
Current Conditions -  °F | °C
As of 1:58 PM on Wednesday 28 Jan 2015 (Local Time) from KCVS Reporting Station
Clear Clear  
Wind Chill: 67°   Ceiling: Unl
Heat Index: 67°   Visibility: 10mi
Dew Point: 34°   Wind: 24mph
Humidity: 29%   Direction: 280°W
Pressure: 30.07"   Gusts: 30mph
Location:  33.6301°N, 103.023°W
Report Text: KCVS 281958Z AUTO 28021G26KT 10SM CLR 20/01 A3007 RMK AO2 PK WND 27027/40 SLP147 T01950009 VISNO RWY22 $
Loading
Personal Weather Stations






























Interactive Weather Map New forecast layout! Learn more

10-Day Weather Forecast

Advertisements
Track Severe Weather on mobile